LFRO

Lannion-Côte de Granit Airport

Lannion, France
TAF LFRO 131700Z 1318/1418 12010KT 9999 FEW010 BKN050 PROB30 TEMPO 1318/1321 3000 -SNRA OVC008 BECMG 1411/1414 BKN010 PROB30 TEMPO 1414/1418 3000 DZRA OVC008
Issued Valid From Valid To
Dec-13 @ 17:00 UTC
(10 hours ago)
Dec-13 @ 18:00 UTC
(9 hours ago)
Dec-14 @ 18:00 UTC
(in 15 hours)
Dec-13 @ 18:00 to Dec-14 @ 11:00
TAF LFRO 131700Z 1318/1418 12010KT 9999 FEW010 BKN050
Wind Visibility Clouds
120° at 10 knots 10,000+ meters
  • Few at 1,000' AGL
  • Broken at 5,000' AGL
Expired Click to View Dec-13 @ 18:00 to Dec-13 @ 21:00
PROB30 TEMPO 1318/1321 3000 -SNRA OVC008
Visibility Clouds Conditions
2,993 meters
  • Overcast at 800' AGL
  • Light Snow
  • Light Rain
Becoming Dec-14 @ 11:00 to Dec-14 @ 18:00
BECMG 1411/1414 BKN010
Wind Visibility Clouds
120° at 10 knots 10,000+ meters
  • Broken at 1,000' AGL
Temporary  (Probability 30%) Dec-14 @ 14:00 to Dec-14 @ 18:00
PROB30 TEMPO 1414/1418 3000 DZRA OVC008
Visibility Clouds Conditions
2,993 meters
  • Overcast at 800' AGL
  • Drizzle
  • Rain
TAF LFRO 131700Z 1318/1418 12010KT 9999 FEW010 BKN050 PROB30 TEMPO 1318/1321 3000 -SNRA OVC008 BECMG 1411/1414 BKN010 PROB30 TEMPO 1414/1418 3000 DZRA OVC008
Issued Dec-13 @ 17:00 UTC
(10 hours ago)
Valid From Dec-13 @ 18:00 UTC
(9 hours ago)
Valid To Dec-14 @ 18:00 UTC
(in 15 hours)
Dec-13 @ 18:00 - Dec-14 @ 11:00
Wind Visibility
120° at 10 knots 10,000+ meters
Clouds
  • Few at 1,000' AGL
  • Broken at 5,000' AGL
Dec-13 @ 18:00 - Dec-13 @ 21:00
Clouds
  • Overcast at 800' AGL
Conditions
  • Light Snow
  • Light Rain
Becoming Dec-14 @ 11:00 - Dec-14 @ 18:00
Wind Visibility
120° at 10 knots 10,000+ meters
Clouds
  • Broken at 1,000' AGL
Probability 30% Temporary Dec-14 @ 14:00 - Dec-14 @ 18:00
Clouds
  • Overcast at 800' AGL
Conditions
  • Drizzle
  • Rain